Time;durP1;ratioP1;P1;durP2;ratioP2;P2;SDS_P1;SDS_P2;PMS_P1;PMS_P2;Temp;Humidity;BMP_temperature;BMP_pressure;BME280_temperature;BME280_humidity;BME280_pressure;Samples;Min_cycle;Max_cycle;Signal;HPM_P1;HPM_P2
2021/01/28 05:02:28;;;;;;;3.47;2.53;;;;;;;3.33;81.01;99126.38;5036697;23;20126;-60
2021/01/28 05:05:29;;;;;;;3.03;2.33;;;;;;;3.49;80.00;99127.88;4922620;29;20118;-60
2021/01/28 05:08:15;;;;;;;2.85;2.30;;;;;;;3.39;80.85;99122.09;4925521;29;20044;-59
2021/01/28 05:11:00;;;;;;;4.00;2.47;;;;;;;3.46;80.72;99128.28;4923034;29;20097;-59
2021/01/28 05:14:20;;;;;;;3.58;2.60;;;;;;;3.48;80.32;99123.56;4851068;29;20045;-59
2021/01/28 05:17:00;;;;;;;4.45;2.83;;;;;;;3.48;79.59;99116.34;4913565;28;20065;-60
2021/01/28 05:19:50;;;;;;;5.22;2.60;;;;;;;3.50;80.31;99114.31;4925765;29;20051;-59
2021/01/28 05:23:23;;;;;;;3.40;2.58;;;;;;;3.53;79.81;99111.25;4903529;29;20512;-60
2021/01/28 05:25:49;;;;;;;3.80;3.00;;;;;;;3.52;80.14;99104.25;4943194;29;20131;-59
2021/01/28 05:28:29;;;;;;;6.65;4.22;;;;;;;3.57;79.13;99101.00;4916475;29;20598;-60
2021/01/28 05:31:26;;;;;;;5.90;4.22;;;;;;;3.56;79.59;99102.00;4924602;29;20050;-61
2021/01/28 05:34:14;;;;;;;8.63;4.97;;;;;;;3.47;79.19;99090.66;4912566;29;20055;-60
2021/01/28 05:37:10;;;;;;;7.30;4.97;;;;;;;3.56;79.80;99091.31;4913310;29;20095;-61
2021/01/28 05:40:18;;;;;;;9.40;4.50;;;;;;;3.54;79.75;99099.53;4919757;28;20071;-61
2021/01/28 05:43:23;;;;;;;;;;;;;;;3.56;79.92;99094.00;4935099;29;20134;-59
2021/01/28 05:45:49;;;;;;;4.68;3.58;;;;;;;3.52;79.60;99090.06;4914520;29;19925;-59
2021/01/28 05:48:35;;;;;;;4.70;3.05;;;;;;;3.56;79.95;99084.13;4916962;29;20050;-62
2021/01/28 05:51:22;;;;;;;4.15;3.08;;;;;;;3.55;80.94;99087.00;4932742;29;20531;-61
2021/01/28 05:54:03;;;;;;;6.90;2.85;;;;;;;3.54;80.29;99085.34;4915010;29;20385;-59
2021/01/28 05:57:12;;;;;;;5.50;3.40;;;;;;;3.58;80.50;99087.41;4916747;29;20409;-60
2021/01/28 05:59:49;;;;;;;4.55;3.25;;;;;;;3.64;79.22;99093.81;4920415;29;20039;-60
2021/01/28 06:02:24;;;;;;;6.15;3.30;;;;;;;3.68;79.37;99094.25;4913973;29;20362;-60
2021/01/28 06:05:41;;;;;;;4.40;3.28;;;;;;;3.72;78.91;99074.91;4857573;29;20055;-59
2021/01/28 06:08:31;;;;;;;4.20;2.90;;;;;;;3.81;78.98;99083.53;4908109;29;20046;-59
2021/01/28 06:11:03;;;;;;;3.92;2.90;;;;;;;3.80;78.89;99081.94;4913975;29;20341;-59
2021/01/28 06:14:00;;;;;;;5.68;2.83;;;;;;;3.97;80.33;99085.84;4929465;29;20576;-60
2021/01/28 06:17:24;;;;;;;3.97;2.85;;;;;;;3.80;79.02;99081.94;4877692;29;20053;-59
2021/01/28 06:20:15;;;;;;;;;;;;;;;3.82;78.97;99078.00;4932255;29;20555;-60
2021/01/28 06:22:48;;;;;;;4.53;3.15;;;;;;;3.82;79.06;99079.84;4913855;29;19966;-59
2021/01/28 06:26:01;;;;;;;3.50;2.90;;;;;;;3.76;79.95;99076.16;4908939;29;20090;-60
2021/01/28 06:28:39;;;;;;;4.78;2.95;;;;;;;3.77;79.76;99074.31;4913630;28;20187;-60
2021/01/28 06:31:13;;;;;;;6.68;3.35;;;;;;;3.77;79.51;99072.47;4927907;29;20050;-59
2021/01/28 06:34:06;;;;;;;6.10;3.33;;;;;;;3.74;79.74;99077.38;4912282;29;20464;-59
2021/01/28 06:37:10;;;;;;;3.10;2.60;;;;;;;3.75;79.47;99071.00;4931823;29;20050;-59
2021/01/28 06:39:57;;;;;;;8.45;4.22;;;;;;;3.69;80.12;99061.97;4931582;29;20282;-59
2021/01/28 06:42:52;;;;;;;8.52;5.82;;;;;;;3.71;80.63;99061.72;4932174;29;20047;-61
2021/01/28 06:45:37;;;;;;;10.40;6.35;;;;;;;3.69;80.25;99061.97;4915538;29;20539;-59
2021/01/28 06:48:22;;;;;;;16.27;7.47;;;;;;;3.63;80.98;99058.25;4913938;29;20043;-59
2021/01/28 06:51:19;;;;;;;9.27;6.47;;;;;;;3.73;80.85;99059.69;4931617;29;20043;-60
2021/01/28 06:53:58;;;;;;;13.63;6.97;;;;;;;3.69;79.77;99056.63;4929285;29;20047;-59
2021/01/28 06:57:26;;;;;;;11.15;6.03;;;;;;;3.75;80.07;99052.28;4931098;29;20515;-60
2021/01/28 07:00:13;;;;;;;6.95;4.65;;;;;;;3.69;80.96;99051.28;4918570;29;20050;-61
2021/01/28 07:03:09;;;;;;;8.35;4.13;;;;;;;3.78;80.70;99049.22;4910771;29;20070;-59
2021/01/28 07:05:51;;;;;;;6.55;4.43;;;;;;;3.79;80.15;99043.69;4910622;29;20075;-60
2021/01/28 07:08:44;;;;;;;9.25;5.40;;;;;;;3.84;80.12;99043.88;4919309;29;20382;-59
2021/01/28 07:11:35;;;;;;;6.00;4.65;;;;;;;3.81;81.64;99035.41;4928701;29;20046;-60
2021/01/28 07:14:19;;;;;;;7.50;4.95;;;;;;;3.79;81.02;99035.66;4928718;29;20105;-59
2021/01/28 07:17:02;;;;;;;6.50;4.28;;;;;;;3.79;81.56;99032.97;4933566;29;20488;-59
2021/01/28 07:19:32;;;;;;;6.25;4.07;;;;;;;3.83;81.32;99017.34;4912525;29;20138;-59
2021/01/28 07:22:18;;;;;;;9.35;3.47;;;;;;;3.83;81.74;99025.34;4912852;29;20472;-60
2021/01/28 07:24:44;;;;;;;6.55;3.55;;;;;;;3.84;81.55;99009.13;4912089;29;20054;-60
2021/01/28 07:27:12;;;;;;;6.18;4.03;;;;;;;3.81;81.34;99008.69;4909766;29;20048;-60
2021/01/28 07:29:46;;;;;;;8.80;4.32;;;;;;;3.85;81.35;99009.94;4933791;29;20039;-59
2021/01/28 07:32:31;;;;;;;7.32;4.22;;;;;;;3.84;81.05;99016.31;4910011;29;20044;-60
2021/01/28 07:35:40;;;;;;;8.95;4.18;;;;;;;3.83;81.45;99012.00;4909239;29;20039;-59
2021/01/28 07:38:32;;;;;;;8.88;3.95;;;;;;;3.91;80.12;99007.28;4913174;29;20039;-59
2021/01/28 07:41:16;;;;;;;7.75;4.47;;;;;;;3.88;81.08;99007.69;4931539;28;20078;-60
2021/01/28 07:44:25;;;;;;;7.30;4.03;;;;;;;3.93;80.43;98996.34;4932726;29;20050;-59
2021/01/28 07:46:58;;;;;;;12.07;5.30;;;;;;;3.95;80.42;98996.97;4916286;29;20047;-59
2021/01/28 07:49:33;;;;;;;8.00;3.35;;;;;;;3.97;80.44;99003.78;4916513;29;20047;-59
2021/01/28 07:52:34;;;;;;;10.50;4.25;;;;;;;4.04;80.85;98992.25;4923224;29;20192;-59
2021/01/28 07:55:00;;;;;;;5.70;3.70;;;;;;;3.94;79.90;98977.44;4916097;29;20050;-59
2021/01/28 07:57:28;;;;;;;7.82;4.57;;;;;;;4.09;79.50;98973.72;4916334;29;20047;-60
2021/01/28 08:00:18;;;;;;;9.48;4.18;;;;;;;4.10;79.73;98973.53;4931729;29;20043;-59
2021/01/28 08:02:44;;;;;;;9.77;4.45;;;;;;;4.04;79.90;98966.31;4916633;29;20047;-62
2021/01/28 08:05:22;;;;;;;7.30;5.25;;;;;;;4.02;79.62;98956.88;4916381;29;20460;-60
2021/01/28 08:08:03;;;;;;;11.18;5.88;;;;;;;4.07;78.37;98949.84;4915929;29;20408;-59
2021/01/28 08:10:30;;;;;;;6.10;4.50;;;;;;;4.03;78.30;98951.31;4916375;28;20058;-60
2021/01/28 08:13:16;;;;;;;8.35;4.65;;;;;;;4.05;79.22;98948.41;4917703;29;20047;-59
2021/01/28 08:15:43;;;;;;;7.32;4.38;;;;;;;3.97;79.04;98957.50;4917113;29;20058;-60
2021/01/28 08:18:19;;;;;;;7.80;4.35;;;;;;;4.14;78.69;98968.59;4914511;29;20134;-59
2021/01/28 08:20:46;;;;;;;8.15;4.68;;;;;;;4.19;78.77;98952.72;4905577;29;20032;-59
2021/01/28 08:23:24;;;;;;;9.10;6.00;;;;;;;4.11;79.41;98953.78;4897120;29;20090;-58
2021/01/28 08:25:58;;;;;;;12.02;7.75;;;;;;;4.15;79.26;98943.50;4911321;29;20074;-59
2021/01/28 08:28:27;;;;;;;11.25;6.75;;;;;;;4.23;78.96;98935.22;4928746;29;20094;-59
2021/01/28 08:31:31;;;;;;;7.35;4.82;;;;;;;4.18;78.10;98935.84;4931909;29;20504;-59
2021/01/28 08:33:59;;;;;;;8.98;4.20;;;;;;;4.26;77.61;98932.97;4915276;29;20058;-59
2021/01/28 08:36:31;;;;;;;6.90;4.63;;;;;;;4.38;78.29;98941.97;4931299;29;20047;-59
2021/01/28 08:39:08;;;;;;;;;;;;;;;4.33;78.39;98944.47;4916171;29;20046;-59
2021/01/28 08:41:33;;;;;;;6.47;4.20;;;;;;;4.42;79.09;98952.25;4916277;29;19918;-59
2021/01/28 08:44:01;;;;;;;7.45;4.63;;;;;;;4.39;79.98;98940.13;4917272;29;20452;-59
2021/01/28 08:46:27;;;;;;;9.40;4.57;;;;;;;4.35;80.02;98929.03;4916073;29;20047;-59
2021/01/28 08:49:20;;;;;;;9.45;4.10;;;;;;;4.36;78.46;98944.06;4915694;29;20036;-59
2021/01/28 08:51:59;;;;;;;7.38;3.85;;;;;;;4.38;77.73;98944.63;4915070;28;20031;-60
2021/01/28 08:54:29;;;;;;;9.93;6.05;;;;;;;4.34;78.40;98934.59;4915161;29;20134;-59
2021/01/28 08:56:58;;;;;;;12.70;8.43;;;;;;;4.33;78.57;98933.75;4915354;29;20031;-59
2021/01/28 08:59:40;;;;;;;19.58;8.68;;;;;;;4.28;78.70;98938.09;4910994;29;20040;-60
2021/01/28 09:02:14;;;;;;;17.13;10.30;;;;;;;4.24;78.62;98937.69;4896492;29;20075;-60
2021/01/28 09:04:45;;;;;;;15.43;10.32;;;;;;;4.26;78.61;98940.16;4917633;29;20107;-59
2021/01/28 09:07:11;;;;;;;26.73;12.77;;;;;;;4.09;78.35;98936.28;4929128;29;20070;-59
2021/01/28 09:09:37;;;;;;;16.80;11.55;;;;;;;4.05;78.32;98935.88;4913309;29;20043;-59
2021/01/28 09:12:30;;;;;;;20.95;12.88;;;;;;;4.04;78.20;98934.22;4913821;29;20094;-59
2021/01/28 09:15:17;;;;;;;18.98;11.15;;;;;;;4.09;78.47;98929.09;4928291;29;20198;-60
2021/01/28 09:17:43;;;;;;;18.00;10.70;;;;;;;4.14;78.35;98931.97;4929140;29;20130;-59
2021/01/28 09:20:22;;;;;;;15.18;9.35;;;;;;;4.16;77.59;98932.56;4914457;29;20141;-60
2021/01/28 09:22:47;;;;;;;11.95;6.95;;;;;;;4.21;77.59;98935.44;4896049;29;20406;-59
2021/01/28 09:25:22;;;;;;;12.30;6.75;;;;;;;4.31;77.70;98927.78;4911030;29;20039;-59
2021/01/28 09:28:06;;;;;;;9.45;6.13;;;;;;;4.33;77.25;98925.72;4911446;29;20062;-59
2021/01/28 09:30:35;;;;;;;13.32;7.60;;;;;;;4.45;77.59;98925.09;4911536;29;20040;-59
2021/01/28 09:33:24;;;;;;;13.57;5.78;;;;;;;4.50;77.15;98917.25;4898511;29;20044;-59
2021/01/28 09:36:04;;;;;;;12.65;7.90;;;;;;;4.38;77.09;98913.59;4924849;29;20523;-59
2021/01/28 09:38:30;;;;;;;14.30;8.95;;;;;;;4.19;78.11;98918.78;4914377;29;20110;-61
2021/01/28 09:41:18;;;;;;;16.85;11.10;;;;;;;4.13;78.11;98919.63;4914456;29;20137;-59
2021/01/28 09:43:45;;;;;;;20.20;11.45;;;;;;;4.24;77.66;98915.47;4920802;29;20040;-60
2021/01/28 09:46:19;;;;;;;20.45;11.93;;;;;;;4.12;77.32;98898.44;4923649;29;20469;-60
2021/01/28 09:48:46;;;;;;;21.45;12.10;;;;;;;4.17;78.29;98903.97;4894848;29;20040;-60
2021/01/28 09:51:16;;;;;;;19.65;11.45;;;;;;;4.17;77.17;98893.25;4913057;29;20081;-60
2021/01/28 09:53:59;;;;;;;17.48;11.50;;;;;;;3.96;77.37;98886.31;4914012;29;20183;-59
2021/01/28 09:56:25;;;;;;;17.80;10.73;;;;;;;4.15;77.56;98887.31;4913673;29;20086;-59
2021/01/28 09:58:51;;;;;;;22.83;12.27;;;;;;;4.19;77.83;98891.19;4913731;29;20043;-60
2021/01/28 10:01:17;;;;;;;19.88;12.15;;;;;;;4.13;78.10;98895.56;4914100;29;20047;-59
2021/01/28 10:03:42;;;;;;;24.65;13.60;;;;;;;4.20;76.89;98879.47;4913824;29;20549;-60
2021/01/28 10:06:08;;;;;;;23.77;13.70;;;;;;;4.06;76.99;98877.84;4914047;29;20102;-59
2021/01/28 10:08:33;;;;;;;18.67;11.88;;;;;;;3.98;77.22;98876.25;4914796;29;20046;-59
2021/01/28 10:10:59;;;;;;;22.88;13.85;;;;;;;3.94;76.63;98877.69;4914083;29;20134;-61
2021/01/28 10:13:24;;;;;;;24.15;15.27;;;;;;;3.94;77.37;98886.53;4913405;29;20082;-60
2021/01/28 10:15:50;;;;;;;23.75;13.95;;;;;;;3.88;77.32;98874.00;4914359;29;20031;-60
2021/01/28 10:18:16;;;;;;;24.10;14.02;;;;;;;3.76;77.53;98870.31;4913784;29;20050;-59
2021/01/28 10:20:43;;;;;;;23.30;14.18;;;;;;;3.70;77.40;98856.94;4913973;29;20345;-60
2021/01/28 10:23:09;;;;;;;22.48;13.73;;;;;;;3.74;78.13;98864.34;4913741;29;20055;-60
2021/01/28 10:25:34;;;;;;;20.83;13.18;;;;;;;3.58;77.96;98862.09;4914913;29;20105;-60
2021/01/28 10:28:00;;;;;;;23.52;14.93;;;;;;;3.72;77.69;98858.38;4913399;29;20136;-60
2021/01/28 10:30:26;;;;;;;24.00;14.77;;;;;;;3.56;78.18;98854.31;4913235;29;20047;-60
2021/01/28 10:32:53;;;;;;;24.13;15.10;;;;;;;3.53;77.82;98846.72;4913630;29;20103;-59
2021/01/28 10:35:23;;;;;;;26.67;15.23;;;;;;;3.70;77.42;98841.75;4913696;29;20517;-59
2021/01/28 10:37:50;;;;;;;24.63;14.27;;;;;;;3.75;78.04;98831.25;4913475;29;20050;-59
2021/01/28 10:40:16;;;;;;;24.30;14.15;;;;;;;3.63;78.52;98822.22;4913303;28;20102;-60
2021/01/28 10:42:43;;;;;;;21.33;14.32;;;;;;;3.82;78.55;98810.66;4913480;29;20075;-59
2021/01/28 10:45:22;;;;;;;25.60;14.30;;;;;;;3.92;77.65;98808.38;4913841;29;20062;-60
2021/01/28 10:47:48;;;;;;;23.00;14.10;;;;;;;3.84;77.80;98805.09;4913685;29;20403;-60
2021/01/28 10:50:14;;;;;;;22.27;13.90;;;;;;;3.81;78.06;98795.66;4929409;28;20036;-60
2021/01/28 10:52:40;;;;;;;24.17;14.05;;;;;;;3.90;77.43;98791.75;4913669;29;20046;-60
2021/01/28 10:55:07;;;;;;;23.00;13.32;;;;;;;3.85;77.77;98780.84;4930168;29;20051;-60
2021/01/28 10:57:33;;;;;;;23.33;14.10;;;;;;;3.69;78.11;98784.00;4913927;29;20034;-59
2021/01/28 10:59:59;;;;;;;24.88;15.25;;;;;;;3.80;78.02;98778.00;4913221;29;20401;-59
2021/01/28 11:02:24;;;;;;;23.63;14.23;;;;;;;3.87;77.98;98770.75;4913105;29;20382;-60
2021/01/28 11:04:50;;;;;;;19.88;13.10;;;;;;;3.86;77.72;98763.78;4913190;29;20088;-59
2021/01/28 11:07:16;;;;;;;21.92;13.80;;;;;;;3.99;77.29;98763.72;4913129;29;20587;-59
2021/01/28 11:09:42;;;;;;;21.98;13.43;;;;;;;3.95;77.13;98756.31;4913049;29;20031;-60
2021/01/28 11:12:09;;;;;;;20.05;12.77;;;;;;;4.06;76.50;98754.84;4913575;29;20051;-59
2021/01/28 11:14:35;;;;;;;19.90;13.15;;;;;;;4.15;77.38;98745.56;4929939;29;20041;-60
2021/01/28 11:17:01;;;;;;;21.38;13.25;;;;;;;4.21;76.88;98736.66;4932756;29;20043;-60
2021/01/28 11:19:26;;;;;;;21.55;13.88;;;;;;;4.15;75.75;98732.19;4932655;29;20047;-59
2021/01/28 11:21:52;;;;;;;23.00;13.77;;;;;;;4.15;76.80;98727.66;4917397;29;20036;-59
2021/01/28 11:24:18;;;;;;;19.63;13.35;;;;;;;4.32;76.10;98727.97;4932642;29;20061;-60
2021/01/28 11:26:44;;;;;;;19.52;13.23;;;;;;;4.42;76.25;98720.28;4917086;29;20054;-59
2021/01/28 11:29:10;;;;;;;20.23;13.93;;;;;;;4.36;76.14;98713.94;4932721;29;20039;-60
2021/01/28 11:31:36;;;;;;;20.42;12.75;;;;;;;4.24;76.40;98699.63;4933664;29;20067;-60
2021/01/28 11:34:03;;;;;;;19.17;12.35;;;;;;;4.16;76.23;98710.56;4916696;29;20389;-60
2021/01/28 11:36:29;;;;;;;18.63;12.10;;;;;;;4.00;76.61;98700.38;4932773;29;20345;-59
2021/01/28 11:38:55;;;;;;;21.77;13.90;;;;;;;4.03;77.13;98697.28;4932356;29;20467;-59
2021/01/28 11:41:20;;;;;;;22.08;12.40;;;;;;;4.28;77.27;98686.59;4916263;29;20242;-59
2021/01/28 11:43:46;;;;;;;23.10;13.65;;;;;;;4.24;76.80;98693.44;4916561;29;20066;-61
2021/01/28 11:46:12;;;;;;;21.23;13.43;;;;;;;4.16;76.83;98686.47;4914942;29;20048;-61
2021/01/28 11:48:38;;;;;;;19.52;13.65;;;;;;;4.22;76.12;98692.84;4934362;29;20039;-59
2021/01/28 11:51:03;;;;;;;21.48;13.00;;;;;;;4.10;76.33;98687.34;4933506;29;20138;-59
2021/01/28 11:53:29;;;;;;;23.55;14.15;;;;;;;4.13;76.61;98681.59;4916360;29;20724;-59
2021/01/28 11:55:55;;;;;;;21.55;13.38;;;;;;;4.00;76.91;98687.81;4916420;29;20027;-60
2021/01/28 11:58:22;;;;;;;21.83;13.05;;;;;;;4.02;77.04;98679.59;4914155;28;20102;-59
2021/01/28 12:00:48;;;;;;;25.63;15.15;;;;;;;4.02;76.79;98673.41;4920663;29;20573;-59
2021/01/28 12:03:13;;;;;;;26.50;13.70;;;;;;;3.96;76.73;98677.75;4919802;29;20055;-59
2021/01/28 12:05:39;;;;;;;20.00;13.35;;;;;;;4.04;77.01;98671.34;4913660;29;20044;-59
2021/01/28 12:08:05;;;;;;;19.67;12.77;;;;;;;4.04;76.83;98661.44;4939530;29;20039;-60
2021/01/28 12:10:32;;;;;;;19.55;12.65;;;;;;;4.08;76.99;98656.50;4916837;28;20043;-59
2021/01/28 12:12:58;;;;;;;21.08;12.63;;;;;;;4.10;76.79;98657.94;4916359;29;20039;-60
2021/01/28 12:15:24;;;;;;;21.30;12.77;;;;;;;4.10;76.88;98654.44;4915958;29;20047;-59
2021/01/28 12:17:50;;;;;;;21.13;14.00;;;;;;;4.11;77.29;98656.06;4916071;29;20047;-60
2021/01/28 12:20:19;;;;;;;20.38;12.50;;;;;;;4.18;76.74;98663.00;4912626;29;20068;-59
2021/01/28 12:22:44;;;;;;;23.80;12.77;;;;;;;4.17;76.55;98653.34;4896889;29;20054;-59
2021/01/28 12:25:10;;;;;;;20.85;12.43;;;;;;;4.19;77.03;98648.59;4897119;29;20047;-60
2021/01/28 12:27:36;;;;;;;19.55;12.10;;;;;;;4.13;76.61;98638.78;4896091;29;20044;-61
2021/01/28 12:30:04;;;;;;;22.50;13.63;;;;;;;4.21;76.79;98643.03;4916182;29;20098;-59
2021/01/28 12:32:30;;;;;;;18.60;13.10;;;;;;;4.21;76.98;98643.88;4915340;29;20122;-59
2021/01/28 12:34:55;;;;;;;18.88;12.52;;;;;;;4.14;76.81;98639.59;4914670;29;20680;-59
2021/01/28 12:37:21;;;;;;;19.10;11.35;;;;;;;4.11;77.31;98635.50;4915470;29;20047;-59
2021/01/28 12:39:47;;;;;;;18.60;12.15;;;;;;;4.16;76.96;98632.16;4915498;29;20098;-60
2021/01/28 12:42:12;;;;;;;19.33;12.23;;;;;;;4.18;77.03;98627.41;4904176;29;20048;-59
2021/01/28 12:44:38;;;;;;;18.40;12.93;;;;;;;4.24;76.88;98627.41;4897024;29;20036;-59
2021/01/28 12:47:04;;;;;;;18.80;11.20;;;;;;;4.23;76.79;98622.25;4897894;29;20517;-59
2021/01/28 12:49:31;;;;;;;20.73;12.57;;;;;;;4.22;76.98;98620.63;4895808;29;20066;-59
2021/01/28 12:51:56;;;;;;;19.17;11.95;;;;;;;4.20;77.77;98614.66;4912263;29;20095;-59
2021/01/28 12:54:22;;;;;;;18.60;12.63;;;;;;;4.22;78.62;98610.72;4896858;29;20048;-59
2021/01/28 12:56:49;;;;;;;21.00;13.02;;;;;;;4.23;78.15;98608.88;4926882;29;20298;-59
2021/01/28 12:59:15;;;;;;;21.92;13.45;;;;;;;4.22;78.03;98600.03;4910889;29;20039;-60
2021/01/28 13:01:40;;;;;;;19.33;13.32;;;;;;;4.26;77.83;98592.41;4911950;29;20508;-59
2021/01/28 13:04:06;;;;;;;20.10;12.00;;;;;;;4.18;78.87;98590.78;4896011;29;20079;-61
2021/01/28 13:06:32;;;;;;;22.42;14.38;;;;;;;4.26;78.85;98587.06;4912411;29;20039;-60
2021/01/28 13:08:58;;;;;;;24.95;12.95;;;;;;;4.28;79.25;98582.28;4895967;29;20524;-59
2021/01/28 13:11:24;;;;;;;19.90;13.15;;;;;;;4.21;79.18;98584.19;4914958;29;20110;-59
2021/01/28 13:13:49;;;;;;;19.83;12.73;;;;;;;4.21;79.75;98576.19;4915182;29;20131;-60
2021/01/28 13:16:16;;;;;;;26.02;14.43;;;;;;;4.28;79.62;98577.75;4931117;29;20055;-59
2021/01/28 13:18:42;;;;;;;23.10;14.57;;;;;;;4.35;80.17;98577.72;4930305;29;20047;-60
2021/01/28 13:21:08;;;;;;;20.95;14.00;;;;;;;4.35;80.03;98572.34;4915080;29;20122;-59
2021/01/28 13:23:33;;;;;;;27.17;15.77;;;;;;;4.39;80.64;98573.53;4915388;29;20122;-59
2021/01/28 13:25:59;;;;;;;24.13;14.63;;;;;;;4.29;80.00;98567.88;4914839;29;20489;-60
2021/01/28 13:28:25;;;;;;;24.88;13.88;;;;;;;4.33;79.69;98569.09;4911388;29;20050;-59
2021/01/28 13:30:51;;;;;;;23.67;14.05;;;;;;;4.26;79.70;98560.31;4911349;29;20501;-61
2021/01/28 13:33:17;;;;;;;21.60;13.63;;;;;;;4.21;81.35;98568.16;4895802;29;20055;-60
2021/01/28 13:35:42;;;;;;;22.00;13.27;;;;;;;4.29;81.49;98562.50;4913262;29;20083;-59
2021/01/28 13:38:08;;;;;;;27.35;14.38;;;;;;;4.18;80.62;98553.34;4914048;28;20047;-59
2021/01/28 13:40:35;;;;;;;22.73;13.23;;;;;;;3.98;81.07;98548.16;4914880;28;20047;-61
2021/01/28 13:43:01;;;;;;;22.52;13.50;;;;;;;4.06;81.18;98547.06;4929807;29;20053;-59
2021/01/28 13:45:28;;;;;;;20.30;13.15;;;;;;;4.00;81.05;98545.28;4910652;29;20043;-59
2021/01/28 13:47:55;;;;;;;27.05;14.95;;;;;;;4.12;81.32;98543.53;4927010;29;20129;-59
2021/01/28 13:50:25;;;;;;;23.60;14.70;;;;;;;3.91;81.40;98538.56;4911255;29;20103;-61
2021/01/28 13:52:51;;;;;;;25.20;14.77;;;;;;;4.02;82.37;98542.41;4911275;29;20047;-62
2021/01/28 13:55:17;;;;;;;24.05;15.70;;;;;;;3.94;82.69;98535.44;4911971;29;20040;-61
2021/01/28 13:57:43;;;;;;;22.20;14.60;;;;;;;3.96;82.26;98539.53;4911925;29;20532;-61
2021/01/28 14:00:10;;;;;;;27.85;15.45;;;;;;;4.07;82.23;98532.66;4914665;29;20043;-59
2021/01/28 14:02:39;;;;;;;23.92;14.70;;;;;;;4.06;81.93;98531.03;4914001;29;20074;-60
2021/01/28 14:05:06;;;;;;;23.98;14.63;;;;;;;4.05;82.01;98525.91;4915211;29;20043;-60
2021/01/28 14:07:32;;;;;;;25.65;14.68;;;;;;;3.97;82.05;98509.09;4914480;29;20043;-60
2021/01/28 14:10:00;;;;;;;25.85;15.60;;;;;;;4.14;82.51;98514.72;4914057;29;20339;-60
2021/01/28 14:12:25;;;;;;;23.73;14.88;;;;;;;4.17;82.38;98505.41;4914187;29;20509;-60
2021/01/28 14:14:51;;;;;;;36.72;16.85;;;;;;;4.06;82.54;98503.47;4914122;29;20059;-59
2021/01/28 14:17:16;;;;;;;24.70;16.20;;;;;;;3.99;82.43;98501.69;4913556;29;20505;-60
2021/01/28 14:19:42;;;;;;;26.42;16.00;;;;;;;3.97;83.02;98501.06;4913808;29;20035;-59
2021/01/28 14:22:07;;;;;;;24.10;15.15;;;;;;;3.98;83.12;98486.66;4914219;29;20074;-60
2021/01/28 14:24:33;;;;;;;27.30;15.57;;;;;;;4.04;82.74;98490.31;4914589;29;20389;-60
2021/01/28 14:27:00;;;;;;;26.48;15.35;;;;;;;4.12;83.48;98494.59;4914185;29;20042;-59
2021/01/28 14:29:26;;;;;;;28.40;16.25;;;;;;;4.17;83.38;98486.69;4910182;29;20058;-60
2021/01/28 14:31:52;;;;;;;26.63;16.55;;;;;;;4.08;83.80;98483.50;4894406;29;20469;-60
2021/01/28 14:34:18;;;;;;;27.10;16.58;;;;;;;4.08;83.66;98480.00;4894884;29;20048;-60
2021/01/28 14:36:43;;;;;;;26.30;16.50;;;;;;;4.10;83.60;98481.44;4915807;28;20034;-60
2021/01/28 14:39:09;;;;;;;30.33;17.35;;;;;;;4.05;84.49;98477.75;4916563;28;20552;-60
2021/01/28 14:41:35;;;;;;;29.77;17.33;;;;;;;4.03;84.10;98474.50;4912384;29;20039;-60
2021/01/28 14:44:00;;;;;;;30.77;16.98;;;;;;;4.01;84.04;98466.72;4926029;28;20051;-59
2021/01/28 14:46:26;;;;;;;32.63;18.38;;;;;;;4.08;84.48;98469.31;4930411;28;20058;-59
2021/01/28 14:48:52;;;;;;;34.88;17.33;;;;;;;4.05;84.65;98475.91;4930584;28;20472;-60
2021/01/28 14:51:18;;;;;;;36.67;17.88;;;;;;;4.10;84.28;98465.38;4930709;28;20118;-59
2021/01/28 14:53:44;;;;;;;33.75;18.02;;;;;;;4.03;84.50;98464.63;4930746;28;20126;-60
2021/01/28 14:56:10;;;;;;;34.78;18.02;;;;;;;3.95;84.74;98468.38;4916481;29;20504;-60
2021/01/28 14:58:36;;;;;;;30.63;17.73;;;;;;;3.78;84.75;98461.16;4909766;29;20512;-59
2021/01/28 15:01:01;;;;;;;32.17;18.35;;;;;;;3.60;85.19;98456.53;4911026;29;20043;-59
2021/01/28 15:03:27;;;;;;;28.92;16.55;;;;;;;3.72;85.24;98449.47;4911312;29;20061;-59
2021/01/28 15:05:53;;;;;;;30.98;17.33;;;;;;;3.86;85.06;98450.16;4908537;29;20051;-60
2021/01/28 15:08:19;;;;;;;29.27;17.75;;;;;;;3.82;85.55;98452.47;4908851;29;20142;-60
2021/01/28 15:10:45;;;;;;;32.22;18.40;;;;;;;3.91;84.95;98448.50;4909212;29;20040;-59
2021/01/28 15:13:11;;;;;;;32.35;17.63;;;;;;;3.78;85.54;98448.59;4917831;29;20047;-60
2021/01/28 15:15:37;;;;;;;32.58;19.65;;;;;;;3.90;85.39;98451.38;4909304;29;20048;-59
2021/01/28 15:18:03;;;;;;;31.45;18.85;;;;;;;3.90;85.56;98446.84;4918307;29;20045;-59
2021/01/28 15:20:28;;;;;;;34.03;20.23;;;;;;;3.94;85.91;98436.50;4907972;29;20046;-59
2021/01/28 15:22:54;;;;;;;31.55;17.75;;;;;;;3.97;85.54;98436.09;4920609;29;20047;-59
2021/01/28 15:25:20;;;;;;;35.35;19.50;;;;;;;3.91;85.54;98445.81;4912477;29;20521;-59
2021/01/28 15:27:45;;;;;;;31.73;18.30;;;;;;;3.89;85.73;98444.41;4912615;29;20043;-60
2021/01/28 15:30:14;;;;;;;31.35;18.30;;;;;;;3.93;85.63;98443.72;4908704;29;20047;-59
2021/01/28 15:32:40;;;;;;;36.25;18.45;;;;;;;3.93;85.67;98440.22;4913353;29;20043;-59
2021/01/28 15:35:07;;;;;;;35.67;18.45;;;;;;;3.94;85.36;98437.34;4909941;29;20052;-60
2021/01/28 15:37:34;;;;;;;37.97;20.50;;;;;;;3.86;85.86;98442.97;4912654;29;20408;-59
2021/01/28 15:40:00;;;;;;;35.63;19.60;;;;;;;3.90;85.58;98435.34;4912848;29;20035;-60
2021/01/28 15:42:26;;;;;;;37.70;21.10;;;;;;;3.87;85.66;98439.25;4912584;29;20583;-60
2021/01/28 15:44:52;;;;;;;38.95;20.10;;;;;;;3.92;86.05;98438.63;4909300;29;20043;-60
2021/01/28 15:47:19;;;;;;;37.88;20.13;;;;;;;3.93;85.81;98443.72;4893623;29;20047;-59
2021/01/28 15:49:45;;;;;;;36.20;20.48;;;;;;;3.86;86.12;98434.13;4894370;29;20050;-60
2021/01/28 15:52:10;;;;;;;38.30;20.88;;;;;;;3.86;85.51;98437.63;4910984;29;20134;-59
2021/01/28 15:54:36;;;;;;;43.55;20.60;;;;;;;3.91;85.45;98447.69;4910069;29;20496;-60
2021/01/28 15:57:02;;;;;;;19.73;11.95;;;;;;;3.87;85.93;98436.59;4909855;29;20046;-60
2021/01/28 15:59:28;;;;;;;21.02;8.70;;;;;;;3.86;85.29;98439.47;4909693;29;20342;-60
2021/01/28 16:01:54;;;;;;;14.45;7.68;;;;;;;3.87;85.29;98443.78;4912163;29;20043;-60
2021/01/28 16:04:20;;;;;;;11.05;6.85;;;;;;;3.77;85.55;98446.16;4916417;29;20051;-61
2021/01/28 16:06:48;;;;;;;9.50;4.97;;;;;;;3.75;84.53;98441.00;4915744;29;20125;-59
2021/01/28 16:09:17;;;;;;;14.25;6.75;;;;;;;3.69;85.48;98443.75;4916261;29;20039;-60
2021/01/28 16:11:43;;;;;;;13.60;7.30;;;;;;;3.67;85.92;98446.63;4912729;29;20127;-59
2021/01/28 16:14:09;;;;;;;16.83;8.02;;;;;;;3.61;85.49;98448.31;4914987;29;20145;-59
2021/01/28 16:16:35;;;;;;;17.00;8.18;;;;;;;3.57;85.84;98439.13;4912235;29;20040;-59
2021/01/28 16:19:00;;;;;;;16.83;8.27;;;;;;;3.64;86.23;98444.41;4900771;28;20047;-59
2021/01/28 16:21:26;;;;;;;18.30;7.60;;;;;;;3.59;86.34;98444.22;4915099;28;20043;-59
2021/01/28 16:23:52;;;;;;;22.90;10.45;;;;;;;3.57;86.04;98446.31;4900837;29;20051;-59
2021/01/28 16:26:17;;;;;;;16.00;7.53;;;;;;;3.53;86.28;98443.25;4923767;29;20044;-59
2021/01/28 16:28:43;;;;;;;15.50;7.35;;;;;;;3.53;86.38;98443.25;4896785;29;20375;-59
2021/01/28 16:31:08;;;;;;;15.25;7.40;;;;;;;3.56;86.59;98453.50;4915883;29;20075;-59
2021/01/28 16:33:34;;;;;;;13.85;8.25;;;;;;;3.58;86.54;98448.75;4916545;29;20031;-60
2021/01/28 16:36:00;;;;;;;17.15;7.78;;;;;;;3.63;86.31;98454.25;4915337;29;20046;-60
2021/01/28 16:38:25;;;;;;;16.42;7.72;;;;;;;3.61;86.49;98450.16;4915487;29;20252;-59
2021/01/28 16:40:51;;;;;;;11.93;6.43;;;;;;;3.64;86.44;98457.75;4915311;29;20465;-59
2021/01/28 16:43:17;;;;;;;18.83;8.05;;;;;;;3.56;85.97;98460.72;4915372;29;20106;-61
2021/01/28 16:45:43;;;;;;;22.67;7.95;;;;;;;3.59;86.19;98455.72;4915428;29;20420;-60
2021/01/28 16:48:09;;;;;;;21.70;9.98;;;;;;;3.64;86.30;98460.44;4915574;29;20047;-59
2021/01/28 16:50:37;;;;;;;24.13;13.15;;;;;;;3.57;86.40;98459.69;4916046;29;20043;-59
2021/01/28 16:53:04;;;;;;;23.55;12.40;;;;;;;3.65;86.04;98459.41;4914891;29;20050;-60
2021/01/28 16:55:30;;;;;;;27.33;13.82;;;;;;;3.58;86.50;98461.28;4914378;29;20467;-58
2021/01/28 16:57:57;;;;;;;31.58;14.65;;;;;;;3.69;85.72;98467.81;4914874;29;20102;-61